This is the latest recevied weather packets stored in our database for station/object WX5HOT. If no packets are shown the sender has not sent any weather packets the latest 10 day(s).
| Time | Temp. | Humidity | Pressure | Rain* | Wind** | Luminosity | Snow |
|---|---|---|---|---|---|---|---|
| 1777137028 | 17.22° C | 87% | 1061.7 hPa | 0 mm | - | 305 W/m² | - |
| 1777136724 | 17.22° C | 90% | 1062.2 hPa | 0 mm | - | 754 W/m² | - |
| 1777136422 | 17.78° C | 86% | 1062 hPa | 0 mm | - | 438 W/m² | - |
| 1777136119 | 18.89° C | 82% | 1062.1 hPa | 0 mm | - | 640 W/m² | - |
| 1777135815 | 18.89° C | 86% | 1062.1 hPa | 0 mm | - | 425 W/m² | - |
| 1777135512 | 18.89° C | 86% | 1062 hPa | 0 mm | - | 613 W/m² | - |
| 1777135208 | 17.78° C | 87% | 1061.7 hPa | 0 mm | - | 955 W/m² | - |
| 1777134905 | 17.78° C | 88% | 1061.6 hPa | 0 mm | - | 642 W/m² | - |
| 1777134601 | 17.78° C | 87% | 1061.7 hPa | 0 mm | - | 952 W/m² | - |
| 1777134298 | 17.22° C | 88% | 1061.8 hPa | 0 mm | - | 457 W/m² | - |
| 1777133995 | 17.22° C | 87% | 1061.7 hPa | 0 mm | - | 370 W/m² | - |
| 1777133691 | 17.78° C | 86% | 1061.7 hPa | 0 mm | - | 346 W/m² | - |
| 1777133390 | 17.22° C | 89% | 1061.4 hPa | 0 mm | - | 701 W/m² | - |
| 1777133085 | 17.78° C | 86% | 1061.7 hPa | 0 mm | - | 387 W/m² | - |
| 1777132781 | 17.22° C | 91% | 1061.7 hPa | 0 mm | - | 565 W/m² | - |
| 1777132478 | 17.22° C | 90% | 1061.5 hPa | 0 mm | - | 351 W/m² | - |
| 1777132174 | 16.67° C | 90% | 1061.5 hPa | 0 mm | - | 242 W/m² | - |
| 1777131871 | 16.67° C | 91% | 1061.4 hPa | 0 mm | - | 340 W/m² | - |
| 1777131569 | 16.67° C | 90% | 1061.4 hPa | 0 mm | - | 453 W/m² | - |
| 1777131268 | 16.11° C | 93% | 1061.2 hPa | 0 mm | - | 483 W/m² | - |
| 1777130968 | 16.11° C | 92% | 1061.2 hPa | 0 mm | - | 396 W/m² | - |
| 1777130664 | 16.11° C | 92% | 1060.9 hPa | 0 mm | - | 380 W/m² | - |
* Rain latest hour (hover to see other rain measurements)
** Current wind speed in m/s (hover to see current wind gust speed)